ePrivacy and GPDR Cookie Consent by Cookie Consent
EmailTwitter


Observations de surface / Québec / CYUL (71627)

Régions: Québec | Canada | États-Unis | Europe | France | UK | Ailleurs
Station
Affichage
Infos & localisation pour CYUL (71627) | Aide pour décoder les METARs

Observations prises le 2022-08-13 à 14H00 UTC à MONTREAL INTL A, QB (CYUL)

Etat du ciel: quelques nuages.

Température: 19.0 Celsius

Point de rosée: 11.0 Celsius

Humidité relative: 60%

Vents: Variable à 4 km/h ou 2 noeuds.

Pression au niveau moyen de la mer: 102.13 kilopascals.

Calage altimétrique: 102.10 kilopascals ou 30.15 pouces de mercure.

Visibilité horizontale: 30.00 milles terrestres ou 48.00 kilomètres.

Observation METAR:

CYUL 131400Z VRB02KT 30SM FEW120 FEW250 19/11 A3015 RMK AC1CI1 AC TR CI TR

SLP213 DENSITY ALT 400FT=